Time;durP1;ratioP1;P1;durP2;ratioP2;P2;SDS_P1;SDS_P2;PMS_P1;PMS_P2;Temp;Humidity;BMP_temperature;BMP_pressure;BME280_temperature;BME280_humidity;BME280_pressure;Samples;Min_cycle;Max_cycle;Signal;HPM_P1;HPM_P2
2022/09/18 00:01:12;;;;;;;7.60;2.08;;;;;;;10.19;100.00;101486.09;5209221;28;20056;-67
2022/09/18 00:03:45;;;;;;;6.38;2.35;;;;;;;10.17;100.00;101479.16;5244351;28;20464;-68
2022/09/18 00:06:19;;;;;;;8.77;2.58;;;;;;;10.16;100.00;101486.31;5216236;28;20035;-67
2022/09/18 00:08:53;;;;;;;7.18;2.80;;;;;;;10.17;100.00;101481.81;5212270;28;20079;-68
2022/09/18 00:11:26;;;;;;;11.57;3.78;;;;;;;10.18;100.00;101486.19;5214869;28;20053;-67
2022/09/18 00:13:57;;;;;;;8.65;3.00;;;;;;;10.18;100.00;101486.19;5216121;28;20679;-67
2022/09/18 00:16:29;;;;;;;8.63;4.10;;;;;;;10.19;100.00;101480.75;5213383;28;20072;-68
2022/09/18 00:19:01;;;;;;;8.45;3.63;;;;;;;10.19;100.00;101479.91;5222032;28;20036;-68
2022/09/18 00:21:34;;;;;;;9.35;3.35;;;;;;;10.20;100.00;101481.59;5229476;28;20035;-68
2022/09/18 00:24:06;;;;;;;11.27;3.17;;;;;;;10.20;100.00;101482.47;5215998;28;20106;-68
2022/09/18 00:26:37;;;;;;;9.15;3.63;;;;;;;10.27;100.00;101468.72;5222154;28;20029;-68
2022/09/18 00:29:10;;;;;;;7.78;3.60;;;;;;;10.18;100.00;101468.38;5231636;28;20160;-68
2022/09/18 00:31:41;;;;;;;9.18;3.33;;;;;;;10.23;100.00;101469.91;5237574;28;20463;-68
2022/09/18 00:34:14;;;;;;;9.13;3.28;;;;;;;10.24;100.00;101467.13;5232405;28;20087;-68
2022/09/18 00:36:45;;;;;;;8.95;3.42;;;;;;;10.23;100.00;101465.41;5229052;28;20048;-68
2022/09/18 00:39:17;;;;;;;7.38;3.10;;;;;;;10.22;100.00;101461.03;5218397;28;20026;-68
2022/09/18 00:41:48;;;;;;;6.20;2.92;;;;;;;10.21;100.00;101457.50;5216063;28;20562;-68
2022/09/18 00:44:31;;;;;;;10.68;3.47;;;;;;;10.23;100.00;101469.91;5211415;28;20040;-67
2022/09/18 00:47:15;;;;;;;10.48;3.35;;;;;;;10.24;100.00;101476.91;5221167;28;20087;-68
2022/09/18 00:49:53;;;;;;;10.57;4.15;;;;;;;10.25;100.00;101476.81;5223158;28;20163;-67
2022/09/18 00:52:28;;;;;;;7.40;3.55;;;;;;;10.24;100.00;101469.81;5224970;28;20025;-67
2022/09/18 00:55:10;;;;;;;8.02;3.60;;;;;;;10.26;100.00;101467.00;5218086;28;20037;-68
2022/09/18 00:57:48;;;;;;;9.75;3.80;;;;;;;10.26;100.00;101465.22;5218328;28;20025;-68
2022/09/18 01:00:20;;;;;;;7.60;4.20;;;;;;;10.26;100.00;101465.22;5215544;28;20471;-68
2022/09/18 01:02:51;;;;;;;10.13;3.95;;;;;;;10.24;100.00;101464.47;5220233;28;20033;-68
2022/09/18 01:05:45;;;;;;;6.90;3.70;;;;;;;10.22;100.00;101471.72;5219780;28;20029;-68
2022/09/18 01:08:27;;;;;;;9.55;4.00;;;;;;;10.22;100.00;101469.03;5225531;28;20434;-68
2022/09/18 01:11:35;;;;;;;8.30;3.53;;;;;;;10.23;100.00;101473.41;5219548;28;20465;-68
2022/09/18 01:14:27;;;;;;;10.18;3.75;;;;;;;10.24;100.00;101474.25;5218427;28;20036;-68
2022/09/18 01:17:11;;;;;;;8.98;3.33;;;;;;;10.23;100.00;101480.56;5229444;28;20455;-68
2022/09/18 01:20:04;;;;;;;12.95;4.22;;;;;;;10.24;100.00;101476.91;5230901;28;20503;-68
2022/09/18 01:23:04;;;;;;;9.38;4.18;;;;;;;10.25;100.00;101474.16;5237693;28;20021;-68
2022/09/18 01:26:14;;;;;;;7.03;3.85;;;;;;;10.26;100.00;101475.88;5221860;28;21410;-68
2022/09/18 01:28:56;;;;;;;9.30;4.00;;;;;;;10.30;100.00;101477.44;5238721;28;20036;-68
2022/09/18 01:31:33;;;;;;;6.97;3.40;;;;;;;10.29;100.00;101474.81;5231090;28;20124;-68
2022/09/18 01:34:12;;;;;;;7.30;3.40;;;;;;;10.29;100.00;101473.00;5228887;28;20025;-68
2022/09/18 01:36:50;;;;;;;9.13;4.13;;;;;;;10.29;100.00;101474.81;5233222;28;20030;-68
2022/09/18 01:39:37;;;;;;;8.45;3.70;;;;;;;10.29;100.00;101465.00;5229174;28;20156;-68
2022/09/18 01:42:11;;;;;;;8.75;4.00;;;;;;;10.27;100.00;101469.59;5236812;28;20037;-68
2022/09/18 01:44:44;;;;;;;11.73;4.35;;;;;;;10.29;100.00;101464.16;5236537;28;20150;-68
2022/09/18 01:47:18;;;;;;;9.27;3.80;;;;;;;10.31;100.00;101467.59;5230738;28;20091;-68
2022/09/18 01:49:52;;;;;;;9.75;3.53;;;;;;;10.28;100.00;101457.09;5234763;28;20029;-68
2022/09/18 01:52:32;;;;;;;8.80;4.32;;;;;;;10.28;100.00;101460.63;5220967;28;20029;-68
2022/09/18 01:55:08;;;;;;;11.55;4.30;;;;;;;10.38;100.00;101455.59;5217814;28;20123;-68
2022/09/18 01:57:46;;;;;;;11.98;5.20;;;;;;;10.26;100.00;101459.88;5219166;28;20037;-68
2022/09/18 02:00:18;;;;;;;11.30;4.38;;;;;;;10.20;100.00;101455.81;5221611;28;20090;-68
2022/09/18 02:03:01;;;;;;;8.55;4.47;;;;;;;10.20;100.00;101449.59;5223898;28;20490;-68
2022/09/18 02:05:37;;;;;;;10.20;4.32;;;;;;;10.27;100.00;101445.56;5217390;28;20756;-68
2022/09/18 02:08:17;;;;;;;6.90;4.35;;;;;;;10.23;100.00;101444.06;5215099;28;20485;-68
2022/09/18 02:10:57;;;;;;;11.95;4.80;;;;;;;10.24;100.00;101453.81;5217524;28;20099;-68
2022/09/18 02:13:37;;;;;;;9.23;4.57;;;;;;;10.26;100.00;101449.22;5219623;28;20033;-68
2022/09/18 02:16:19;;;;;;;9.15;4.30;;;;;;;10.27;100.00;101447.41;5216468;28;20036;-68
2022/09/18 02:18:55;;;;;;;11.90;4.80;;;;;;;10.37;100.00;101445.84;5220838;28;20414;-68
2022/09/18 02:21:29;;;;;;;12.23;4.30;;;;;;;10.27;100.00;101450.06;5229597;28;20037;-68
2022/09/18 02:24:08;;;;;;;13.95;4.57;;;;;;;10.26;100.00;101440.34;5233678;28;20025;-68
2022/09/18 02:26:41;;;;;;;12.35;4.80;;;;;;;10.27;100.00;101442.91;5230202;28;20686;-68
2022/09/18 02:29:15;;;;;;;9.15;5.05;;;;;;;10.27;100.00;101432.25;5233395;28;20037;-67
2022/09/18 02:31:48;;;;;;;9.38;3.63;;;;;;;10.40;100.00;101438.50;5234712;28;20455;-67
2022/09/18 02:34:20;;;;;;;11.25;3.83;;;;;;;10.31;100.00;101436.44;5227004;28;20108;-68
2022/09/18 02:37:30;;;;;;;11.80;3.88;;;;;;;10.30;100.00;101437.41;5237367;28;20038;-68
2022/09/18 02:40:29;;;;;;;7.32;3.30;;;;;;;10.31;100.00;101432.94;5240548;28;20039;-68
2022/09/18 02:43:18;;;;;;;10.88;3.38;;;;;;;10.30;100.00;101429.41;5236523;28;20030;-68
2022/09/18 02:46:19;;;;;;;8.32;3.50;;;;;;;10.31;100.00;101425.78;5233019;28;20076;-68
2022/09/18 02:49:17;;;;;;;6.90;2.67;;;;;;;10.31;100.00;101431.13;5227861;28;20059;-68
2022/09/18 02:51:53;;;;;;;11.27;3.65;;;;;;;10.32;100.00;101440.84;5231391;28;20393;-68
2022/09/18 02:54:39;;;;;;;9.82;2.75;;;;;;;10.37;100.00;101427.19;5222578;28;20033;-68
2022/09/18 02:57:19;;;;;;;9.52;3.03;;;;;;;10.36;100.00;101428.16;5234172;28;20116;-69
2022/09/18 02:59:55;;;;;;;8.38;2.90;;;;;;;10.37;100.00;101424.53;5223800;28;20028;-69
2022/09/18 03:02:27;;;;;;;10.40;2.60;;;;;;;10.36;100.00;101415.66;5228775;28;20082;-69
2022/09/18 03:04:58;;;;;;;9.13;2.50;;;;;;;10.40;100.00;101419.00;5221955;28;20022;-69
2022/09/18 03:07:30;;;;;;;12.70;3.53;;;;;;;10.40;100.00;101430.50;5220995;28;20502;-69
2022/09/18 03:10:01;;;;;;;14.82;2.78;;;;;;;10.41;100.00;101428.69;5225382;28;20998;-69
2022/09/18 03:12:33;;;;;;;10.65;2.70;;;;;;;10.43;100.00;101417.91;5218812;28;20124;-69
2022/09/18 03:15:05;;;;;;;11.75;2.80;;;;;;;10.43;100.00;101407.25;5220553;28;20040;-69
2022/09/18 03:17:36;;;;;;;7.10;2.45;;;;;;;10.43;100.00;101416.09;5220083;28;20030;-69
2022/09/18 03:20:08;;;;;;;10.75;2.90;;;;;;;10.46;100.00;101412.41;5221820;28;20088;-70
2022/09/18 03:22:39;;;;;;;10.13;3.17;;;;;;;10.46;100.00;101410.56;5227581;28;20091;-69
2022/09/18 03:25:13;;;;;;;6.25;2.10;;;;;;;10.44;100.00;101411.66;5218556;28;20463;-69
2022/09/18 03:27:44;;;;;;;7.68;2.17;;;;;;;10.42;100.00;101416.22;5229377;28;20041;-70
2022/09/18 03:30:15;;;;;;;7.05;2.22;;;;;;;10.42;100.00;101424.22;5238531;28;20025;-70
2022/09/18 03:32:47;;;;;;;12.73;2.50;;;;;;;10.40;100.00;101414.50;5227173;28;20069;-70
2022/09/18 03:35:19;;;;;;;8.48;2.30;;;;;;;10.45;100.00;101413.34;5220533;28;20083;-70
2022/09/18 03:37:50;;;;;;;13.38;2.80;;;;;;;10.43;100.00;101409.91;5220434;28;20041;-70
2022/09/18 03:40:22;;;;;;;9.80;2.67;;;;;;;10.41;100.00;101402.00;5236132;28;20036;-70
2022/09/18 03:42:53;;;;;;;8.07;2.63;;;;;;;10.42;100.00;101405.56;5227330;28;20017;-70
2022/09/18 03:45:24;;;;;;;11.73;2.30;;;;;;;10.39;100.00;101410.16;5238434;28;20127;-70
2022/09/18 03:47:55;;;;;;;8.35;1.70;;;;;;;10.39;100.00;101404.81;5224155;28;20108;-70
2022/09/18 03:50:27;;;;;;;7.60;1.65;;;;;;;10.36;100.00;101394.31;5230136;28;20395;-70
2022/09/18 03:52:58;;;;;;;9.95;1.90;;;;;;;10.36;100.00;101394.31;5230993;28;20029;-70
2022/09/18 03:55:29;;;;;;;7.30;1.80;;;;;;;10.35;100.00;101389.09;5236074;28;20025;-70
2022/09/18 03:58:01;;;;;;;7.82;1.40;;;;;;;10.35;100.00;101383.75;5229714;28;20029;-70
2022/09/18 04:00:32;;;;;;;8.00;1.63;;;;;;;10.33;100.00;101391.84;5226266;28;20040;-70
2022/09/18 04:03:03;;;;;;;7.45;1.27;;;;;;;10.40;100.00;101390.50;5226249;28;20661;-69
2022/09/18 04:05:35;;;;;;;6.05;1.23;;;;;;;10.32;100.00;101382.16;5226569;28;20127;-69
2022/09/18 04:08:06;;;;;;;8.68;1.13;;;;;;;10.31;100.00;101385.78;5216260;28;20642;-70
2022/09/18 04:10:37;;;;;;;8.15;1.50;;;;;;;10.27;100.00;101381.56;5220318;28;20048;-70
2022/09/18 04:13:09;;;;;;;7.35;1.30;;;;;;;10.28;100.00;101382.41;5215218;28;20037;-69
2022/09/18 04:15:40;;;;;;;5.85;1.30;;;;;;;10.26;100.00;101379.88;5218816;28;20021;-69
2022/09/18 04:18:12;;;;;;;6.60;1.00;;;;;;;10.27;100.00;101383.38;5217674;28;20172;-69
2022/09/18 04:20:44;;;;;;;4.70;1.23;;;;;;;10.27;100.00;101384.25;5215708;28;20032;-69
2022/09/18 04:23:16;;;;;;;10.02;1.10;;;;;;;10.29;100.00;101386.81;5218089;28;20021;-69
2022/09/18 04:25:47;;;;;;;4.93;1.17;;;;;;;10.30;100.00;101385.88;5213871;28;21263;-69
2022/09/18 04:28:19;;;;;;;7.10;1.40;;;;;;;10.27;100.00;101397.56;5210260;28;20021;-69
2022/09/18 04:30:50;;;;;;;5.95;1.80;;;;;;;10.32;100.00;101395.50;5218930;28;20196;-69
2022/09/18 04:33:21;;;;;;;9.32;1.70;;;;;;;10.30;100.00;101386.75;5219188;28;20029;-69
2022/09/18 04:35:53;;;;;;;6.18;1.42;;;;;;;10.30;100.00;101394.75;5213837;28;20030;-69
2022/09/18 04:38:28;;;;;;;5.20;1.67;;;;;;;10.29;100.00;101394.81;5217109;28;20116;-69
2022/09/18 04:41:00;;;;;;;7.53;1.20;;;;;;;10.25;100.00;101396.81;5219418;28;20022;-69
2022/09/18 04:43:31;;;;;;;5.85;1.10;;;;;;;10.23;100.00;101400.56;5217475;28;20057;-69
2022/09/18 04:46:02;;;;;;;5.78;1.40;;;;;;;10.21;100.00;101393.50;5218162;28;20046;-69
2022/09/18 04:48:34;;;;;;;8.48;1.27;;;;;;;10.21;100.00;101395.31;5214503;28;20032;-69
2022/09/18 04:51:06;;;;;;;8.88;1.83;;;;;;;10.19;100.00;101394.56;5214949;28;20029;-69
2022/09/18 04:53:38;;;;;;;8.43;1.25;;;;;;;10.18;100.00;101395.50;5211302;28;20221;-69
2022/09/18 04:56:09;;;;;;;6.78;1.30;;;;;;;10.17;100.00;101401.81;5214295;28;21278;-69
2022/09/18 04:58:41;;;;;;;4.72;1.33;;;;;;;10.15;100.00;101399.25;5210608;28;20061;-69
2022/09/18 05:01:13;;;;;;;6.43;1.48;;;;;;;10.15;100.00;101393.06;5214181;28;20037;-69
2022/09/18 05:03:44;;;;;;;8.40;1.70;;;;;;;10.14;100.00;101397.56;5216360;28;20060;-69
2022/09/18 05:06:15;;;;;;;6.35;1.90;;;;;;;10.13;100.00;101394.97;5215346;28;20033;-69
2022/09/18 05:08:46;;;;;;;9.02;2.00;;;;;;;10.16;100.00;101390.31;5215589;28;20029;-69
2022/09/18 05:11:18;;;;;;;4.85;1.30;;;;;;;10.14;100.00;101378.88;5217908;28;20597;-69
2022/09/18 05:13:51;;;;;;;5.88;1.27;;;;;;;10.14;100.00;101372.66;5215285;28;20115;-68
2022/09/18 05:16:23;;;;;;;7.25;1.20;;;;;;;10.15;100.00;101374.41;5220848;28;20419;-68
2022/09/18 05:18:54;;;;;;;7.53;1.40;;;;;;;10.16;100.00;101378.75;5216282;28;20092;-68
2022/09/18 05:21:26;;;;;;;8.48;1.52;;;;;;;10.16;100.00;101392.09;5216673;28;20037;-68
2022/09/18 05:23:57;;;;;;;7.40;1.52;;;;;;;10.16;100.00;101403.63;5210427;28;20128;-68
2022/09/18 05:26:30;;;;;;;7.65;1.38;;;;;;;10.16;100.00;101400.09;5219672;28;20044;-69
2022/09/18 05:29:01;;;;;;;6.85;1.90;;;;;;;10.15;100.00;101387.72;5216705;28;20029;-69
2022/09/18 05:31:32;;;;;;;8.13;1.70;;;;;;;10.17;100.00;101393.81;5219677;28;20817;-69
2022/09/18 05:34:03;;;;;;;8.88;1.77;;;;;;;10.19;100.00;101402.56;5219514;28;20498;-69
2022/09/18 05:36:35;;;;;;;12.02;2.03;;;;;;;10.19;100.00;101410.56;5225652;28;20532;-68
2022/09/18 05:39:06;;;;;;;7.88;1.85;;;;;;;10.17;100.00;101413.31;5230928;28;20827;-68
2022/09/18 05:41:37;;;;;;;6.93;1.80;;;;;;;10.16;100.00;101411.63;5230077;28;20024;-69
2022/09/18 05:44:08;;;;;;;8.60;1.80;;;;;;;10.16;100.00;101406.31;5233288;28;20112;-68
2022/09/18 05:46:40;;;;;;;8.63;1.50;;;;;;;10.23;100.00;101398.72;5236611;28;20106;-69
2022/09/18 05:49:11;;;;;;;7.70;1.67;;;;;;;10.20;100.00;101401.59;5235265;28;20679;-68
2022/09/18 05:51:45;;;;;;;6.30;1.55;;;;;;;10.22;100.00;101394.38;5229970;28;20060;-69
2022/09/18 05:54:16;;;;;;;8.55;2.20;;;;;;;10.24;100.00;101395.13;5230837;28;20029;-69
2022/09/18 05:56:47;;;;;;;8.80;2.42;;;;;;;10.27;100.00;101397.56;5229650;28;20082;-69
2022/09/18 05:59:19;;;;;;;6.90;1.98;;;;;;;10.29;100.00;101400.13;5231190;28;20059;-69
2022/09/18 06:01:50;;;;;;;11.65;2.70;;;;;;;10.37;100.00;101395.19;5234366;28;20037;-69
2022/09/18 06:04:21;;;;;;;8.88;2.70;;;;;;;10.32;100.00;101389.31;5225973;28;20033;-69
2022/09/18 06:06:52;;;;;;;9.43;2.40;;;;;;;10.33;100.00;101388.34;5225479;28;20040;-69
2022/09/18 06:09:24;;;;;;;9.07;2.42;;;;;;;10.37;100.00;101392.50;5236309;28;20021;-69
2022/09/18 06:11:56;;;;;;;10.73;2.80;;;;;;;10.36;100.00;101389.00;5223587;28;20033;-69
2022/09/18 06:14:27;;;;;;;11.95;2.47;;;;;;;10.36;100.00;101385.47;5231539;28;20379;-69
2022/09/18 06:16:59;;;;;;;11.43;2.58;;;;;;;10.40;100.00;101385.16;5230466;28;20041;-69
2022/09/18 06:19:30;;;;;;;10.57;2.70;;;;;;;10.43;100.00;101388.56;5221347;28;20120;-69
2022/09/18 06:22:01;;;;;;;8.55;2.30;;;;;;;10.46;100.00;101377.72;5220410;28;20029;-68
2022/09/18 06:24:33;;;;;;;15.00;3.33;;;;;;;10.51;100.00;101383.59;5224206;28;20990;-69
2022/09/18 06:27:04;;;;;;;7.47;2.63;;;;;;;10.58;100.00;101382.22;5233928;28;20475;-69
2022/09/18 06:29:35;;;;;;;9.65;2.53;;;;;;;10.64;100.00;101397.78;5238360;28;20076;-69
2022/09/18 06:32:07;;;;;;;10.65;3.05;;;;;;;10.63;100.00;101387.25;5239527;28;20029;-69
2022/09/18 06:34:38;;;;;;;10.75;2.80;;;;;;;10.67;100.00;101380.75;5238161;28;20049;-68
2022/09/18 06:37:10;;;;;;;13.82;3.30;;;;;;;10.67;100.00;101378.91;5230421;28;20467;-69
2022/09/18 06:39:42;;;;;;;8.25;3.15;;;;;;;10.72;100.00;101381.25;5231644;28;20387;-68
2022/09/18 06:42:15;;;;;;;13.98;3.80;;;;;;;10.76;100.00;101374.78;5222784;28;20032;-69
2022/09/18 06:44:46;;;;;;;8.25;3.50;;;;;;;10.75;100.00;101376.56;5231626;28;20095;-68
2022/09/18 06:47:17;;;;;;;10.90;3.65;;;;;;;10.79;100.00;101383.41;5231727;28;20039;-68
2022/09/18 06:49:48;;;;;;;10.07;3.40;;;;;;;10.82;100.00;101378.84;5230099;28;20499;-68
2022/09/18 06:52:20;;;;;;;11.82;3.47;;;;;;;10.90;100.00;101381.81;5226680;28;20032;-68
2022/09/18 06:54:51;;;;;;;8.45;3.10;;;;;;;10.87;100.00;101380.19;5226993;28;20103;-68
2022/09/18 06:57:22;;;;;;;13.55;3.78;;;;;;;10.88;100.00;101381.06;5226632;28;20099;-68
2022/09/18 06:59:54;;;;;;;9.43;3.38;;;;;;;10.92;100.00;101378.06;5225639;28;20032;-68
2022/09/18 07:02:25;;;;;;;7.18;3.10;;;;;;;10.93;100.00;101374.47;5223706;28;20075;-68
2022/09/18 07:04:56;;;;;;;8.27;3.20;;;;;;;11.02;100.00;101372.09;5225776;28;20025;-68
2022/09/18 07:07:27;;;;;;;7.68;2.88;;;;;;;10.99;100.00;101375.84;5227871;28;20029;-68
2022/09/18 07:09:59;;;;;;;11.13;3.38;;;;;;;11.05;100.00;101378.09;5228526;28;20944;-68
2022/09/18 07:12:30;;;;;;;8.20;2.60;;;;;;;11.06;100.00;101376.25;5217658;28;20049;-68
2022/09/18 07:15:02;;;;;;;8.80;2.47;;;;;;;11.05;100.00;101370.06;5217420;28;20073;-68
2022/09/18 07:17:33;;;;;;;10.40;2.58;;;;;;;11.10;100.00;101375.06;5222172;28;20047;-68
2022/09/18 07:20:05;;;;;;;10.82;3.35;;;;;;;11.18;100.00;101370.06;5230147;28;20052;-68
2022/09/18 07:22:37;;;;;;;11.00;3.38;;;;;;;11.19;100.00;101377.94;5235900;28;20398;-68
2022/09/18 07:25:09;;;;;;;8.10;2.90;;;;;;;11.23;100.00;101367.06;5232226;28;20577;-68
2022/09/18 07:27:40;;;;;;;5.30;2.60;;;;;;;11.25;100.00;101362.47;5230586;28;20056;-68
2022/09/18 07:30:12;;;;;;;10.00;2.90;;;;;;;11.26;100.00;101370.38;5233238;28;20044;-68
2022/09/18 07:32:43;;;;;;;7.57;2.50;;;;;;;11.36;100.00;101354.53;5225173;28;20035;-68
2022/09/18 07:35:15;;;;;;;9.38;2.95;;;;;;;11.31;100.00;101359.34;5231604;28;20483;-68
2022/09/18 07:37:46;;;;;;;6.43;2.30;;;;;;;11.32;100.00;101353.91;5224182;28;20061;-68
2022/09/18 07:40:17;;;;;;;7.20;2.50;;;;;;;11.38;100.00;101358.81;5233570;28;20041;-68
2022/09/18 07:42:49;;;;;;;7.22;2.47;;;;;;;11.37;100.00;101361.56;5237866;28;20033;-68
2022/09/18 07:45:20;;;;;;;11.10;2.80;;;;;;;11.36;100.00;101359.88;5232332;28;21149;-68
2022/09/18 07:47:51;;;;;;;7.40;2.33;;;;;;;11.39;100.00;101370.38;5230469;28;20048;-68
2022/09/18 07:50:22;;;;;;;9.27;2.60;;;;;;;11.43;100.00;101368.28;5227644;28;20024;-68
2022/09/18 07:52:56;;;;;;;7.35;2.40;;;;;;;11.52;100.00;101371.16;5234026;28;20029;-68
2022/09/18 07:55:28;;;;;;;9.10;2.80;;;;;;;11.49;100.00;101358.03;5220894;28;20036;-68
2022/09/18 07:58:03;;;;;;;8.88;2.97;;;;;;;11.61;100.00;101358.13;5222262;28;20354;-68
2022/09/18 08:00:35;;;;;;;5.88;2.78;;;;;;;11.62;100.00;101363.34;5227321;28;20054;-68
2022/09/18 08:03:10;;;;;;;10.68;3.42;;;;;;;11.69;100.00;101361.91;5224828;28;20027;-67
2022/09/18 08:05:42;;;;;;;11.15;2.70;;;;;;;11.78;100.00;101353.22;5223528;28;20025;-68
2022/09/18 08:08:14;;;;;;;9.95;3.33;;;;;;;11.88;100.00;101352.56;5217728;28;20032;-68
2022/09/18 08:10:46;;;;;;;9.93;3.28;;;;;;;11.96;100.00;101352.88;5237763;28;20344;-68
2022/09/18 08:13:17;;;;;;;6.45;2.70;;;;;;;11.99;100.00;101346.47;5227812;28;20091;-68
2022/09/18 08:15:48;;;;;;;6.43;2.90;;;;;;;12.07;100.00;101350.25;5227644;28;20483;-68
2022/09/18 08:18:20;;;;;;;5.45;2.40;;;;;;;12.09;100.00;101350.16;5230423;28;20516;-67
2022/09/18 08:20:55;;;;;;;7.68;2.00;;;;;;;12.07;100.00;101357.44;5231023;28;20029;-68
2022/09/18 08:23:26;;;;;;;6.82;2.08;;;;;;;12.02;100.00;101357.75;5217162;28;20119;-67
2022/09/18 08:26:02;;;;;;;5.00;1.80;;;;;;;12.01;100.00;101363.25;5227978;28;20484;-68
2022/09/18 08:28:34;;;;;;;9.07;2.45;;;;;;;12.03;100.00;101366.66;5230219;28;20052;-68
2022/09/18 08:31:05;;;;;;;5.95;1.90;;;;;;;11.97;100.00;101367.97;5227497;28;20117;-69
2022/09/18 08:33:37;;;;;;;9.35;1.98;;;;;;;11.95;100.00;101367.22;5221077;28;20029;-68
2022/09/18 08:36:08;;;;;;;5.60;1.85;;;;;;;11.92;100.00;101362.09;5225241;28;20375;-67
2022/09/18 08:38:39;;;;;;;6.30;1.83;;;;;;;11.90;100.00;101375.56;5234168;28;20021;-68
2022/09/18 08:41:24;;;;;;;8.88;2.15;;;;;;;11.92;100.00;101378.97;5230323;28;20455;-68
2022/09/18 08:44:06;;;;;;;8.63;2.30;;;;;;;11.91;100.00;101382.63;5231596;28;20033;-69
2022/09/18 08:46:48;;;;;;;7.68;2.50;;;;;;;11.93;100.00;101380.72;5224643;28;20042;-69
2022/09/18 08:49:22;;;;;;;6.10;2.10;;;;;;;11.92;100.00;101365.63;5226034;28;20017;-68
2022/09/18 08:52:02;;;;;;;;;;;;;;;11.95;100.00;101359.22;5238104;28;20032;-68
2022/09/18 08:54:52;;;;;;;6.93;1.90;;;;;;;11.96;100.00;101372.44;5223656;28;19986;-69
2022/09/18 08:57:26;;;;;;;7.35;2.20;;;;;;;12.02;100.00;101375.63;5226195;28;20069;-69
2022/09/18 09:00:21;;;;;;;5.35;1.83;;;;;;;12.00;100.00;101373.06;5224551;28;20034;-68
2022/09/18 09:03:21;;;;;;;5.68;1.90;;;;;;;12.02;100.00;101380.97;5219073;28;20762;-68
2022/09/18 09:06:00;;;;;;;5.07;1.83;;;;;;;12.00;100.00;101380.25;5221912;28;20033;-68
2022/09/18 09:08:58;;;;;;;5.03;1.80;;;;;;;11.98;100.00;101374.16;5222135;28;21071;-68
2022/09/18 09:11:52;;;;;;;4.65;2.05;;;;;;;12.03;100.00;101372.00;5219808;28;20025;-69
2022/09/18 09:14:44;;;;;;;6.50;2.13;;;;;;;11.98;100.00;101376.84;5221671;28;20493;-69
2022/09/18 09:17:30;;;;;;;5.65;2.25;;;;;;;11.99;100.00;101373.22;5221758;28;20112;-68
2022/09/18 09:20:18;;;;;;;8.45;2.80;;;;;;;12.04;100.00;101368.34;5227259;28;20107;-69
2022/09/18 09:23:03;;;;;;;4.25;2.40;;;;;;;12.07;100.00;101362.78;5220897;28;20037;-68
2022/09/18 09:25:50;;;;;;;6.88;2.40;;;;;;;12.08;100.00;101384.06;5215969;28;20041;-68
2022/09/18 09:28:24;;;;;;;6.65;2.53;;;;;;;12.01;100.00;101387.31;5224150;28;20029;-68
2022/09/18 09:31:00;;;;;;;7.80;2.17;;;;;;;12.04;100.00;101374.56;5228558;28;20030;-68
2022/09/18 09:33:38;;;;;;;6.72;2.60;;;;;;;12.04;100.00;101373.69;5225183;28;20021;-68
2022/09/18 09:36:13;;;;;;;6.28;2.63;;;;;;;12.05;100.00;101375.41;5227641;28;20021;-68
2022/09/18 09:39:33;;;;;;;8.13;2.97;;;;;;;12.08;100.00;101375.16;5226809;28;20041;-68
2022/09/18 09:42:06;;;;;;;6.80;3.13;;;;;;;12.04;100.00;101379.03;5234235;28;20049;-69
2022/09/18 09:44:55;;;;;;;8.50;3.10;;;;;;;12.05;100.00;101386.13;5223319;28;20058;-69
2022/09/18 09:47:32;;;;;;;11.50;4.30;;;;;;;12.06;100.00;101380.66;5223961;28;20030;-70
2022/09/18 09:50:22;;;;;;;7.88;4.25;;;;;;;12.11;100.00;101388.31;5225643;28;20029;-70
2022/09/18 09:52:58;;;;;;;7.45;4.40;;;;;;;12.17;100.00;101374.50;5229711;28;20605;-69
2022/09/18 09:55:36;;;;;;;5.95;3.63;;;;;;;12.18;100.00;101372.66;5226400;28;20064;-70
2022/09/18 09:58:38;;;;;;;7.30;3.72;;;;;;;12.28;100.00;101360.31;5223708;28;20682;-69
2022/09/18 10:01:12;;;;;;;5.68;3.22;;;;;;;12.29;100.00;101353.97;5222393;28;20051;-68
2022/09/18 10:03:54;;;;;;;8.02;3.53;;;;;;;12.40;100.00;101350.50;5219584;28;20752;-69
2022/09/18 10:06:55;;;;;;;8.90;3.63;;;;;;;12.47;100.00;101338.38;5224804;28;20036;-68
2022/09/18 10:09:39;;;;;;;7.70;3.90;;;;;;;12.54;100.00;101332.44;5225783;28;20052;-69
2022/09/18 10:12:17;;;;;;;10.00;3.78;;;;;;;12.60;100.00;101332.91;5217654;28;20905;-69
2022/09/18 10:14:49;;;;;;;6.13;3.25;;;;;;;12.61;100.00;101351.53;5213406;28;20040;-69
2022/09/18 10:17:22;;;;;;;7.88;3.38;;;;;;;12.64;100.00;101331.72;5216435;28;20037;-69
2022/09/18 10:19:54;;;;;;;6.70;3.00;;;;;;;12.70;100.00;101353.50;5228815;28;20078;-69
2022/09/18 10:22:26;;;;;;;8.57;2.70;;;;;;;12.80;100.00;101347.44;5217658;28;20487;-69
2022/09/18 10:25:02;;;;;;;7.00;2.53;;;;;;;12.85;100.00;101345.25;5223924;28;20092;-68
2022/09/18 10:27:34;;;;;;;6.32;2.10;;;;;;;12.87;100.00;101346.00;5216043;28;20033;-69
2022/09/18 10:30:12;;;;;;;8.10;2.83;;;;;;;12.98;100.00;101348.66;5226987;28;20033;-68
2022/09/18 10:32:43;;;;;;;9.10;2.53;;;;;;;13.03;100.00;101341.13;5224460;28;20502;-69
2022/09/18 10:35:37;;;;;;;6.70;2.10;;;;;;;13.08;100.00;101344.28;5227047;28;20017;-68
2022/09/18 10:38:31;;;;;;;6.95;2.13;;;;;;;13.11;100.00;101349.41;5219975;28;20400;-68
2022/09/18 10:41:33;;;;;;;7.00;1.50;;;;;;;13.17;100.00;101357.94;5229730;28;20044;-69
2022/09/18 10:44:11;;;;;;;6.47;1.00;;;;;;;13.11;100.00;101346.72;5234600;28;20545;-68
2022/09/18 10:46:52;;;;;;;3.75;0.90;;;;;;;13.11;100.00;101340.50;5232126;28;20029;-69
2022/09/18 10:49:48;;;;;;;3.78;0.90;;;;;;;13.10;100.00;101333.47;5223326;28;20037;-69
2022/09/18 10:52:52;;;;;;;5.03;1.00;;;;;;;13.06;100.00;101332.84;5232686;28;20050;-68
2022/09/18 10:55:25;;;;;;;3.72;0.90;;;;;;;13.16;100.00;101324.09;5237480;28;20049;-69
2022/09/18 10:57:56;;;;;;;4.75;1.70;;;;;;;13.22;100.00;101326.28;5230856;28;20113;-67
2022/09/18 11:00:29;;;;;;;6.68;2.10;;;;;;;13.28;100.00;101315.06;5235270;28;20464;-69
2022/09/18 11:03:14;;;;;;;4.75;1.98;;;;;;;13.23;100.00;101314.56;5231509;28;20473;-68
2022/09/18 11:05:50;;;;;;;;;;;;;;;13.26;100.00;101312.50;5222113;28;20515;-69
2022/09/18 11:08:26;;;;;;;5.78;2.33;;;;;;;13.18;100.00;101311.41;5223305;28;20300;-68
2022/09/18 11:11:04;;;;;;;5.78;2.08;;;;;;;13.09;100.00;101326.38;5233889;28;20040;-69
2022/09/18 11:13:47;;;;;;;5.10;2.05;;;;;;;13.07;100.00;101336.38;5221881;28;20543;-68
2022/09/18 11:16:24;;;;;;;6.78;2.00;;;;;;;12.93;100.00;101349.03;5242866;28;20071;-68
2022/09/18 11:19:05;;;;;;;8.85;2.67;;;;;;;12.86;100.00;101346.94;5229071;28;20072;-70
2022/09/18 11:21:45;;;;;;;4.88;2.17;;;;;;;12.78;100.00;101347.56;5239813;28;20116;-69
2022/09/18 11:24:21;;;;;;;14.85;3.10;;;;;;;12.65;100.00;101353.00;5228539;28;20033;-71
2022/09/18 11:26:56;;;;;;;6.20;2.08;;;;;;;12.52;100.00;101346.88;5244546;28;20486;-70
2022/09/18 11:29:30;;;;;;;14.02;2.50;;;;;;;12.41;100.00;101357.56;5229127;28;20025;-70
2022/09/18 11:32:04;;;;;;;6.78;2.35;;;;;;;12.30;100.00;101361.91;5226560;28;20060;-70
2022/09/18 11:34:45;;;;;;;5.05;1.52;;;;;;;12.24;100.00;101356.19;5227880;28;20033;-70
2022/09/18 11:37:42;;;;;;;6.25;2.00;;;;;;;12.20;100.00;101363.56;5233188;28;20116;-69
2022/09/18 11:40:20;;;;;;;5.40;1.30;;;;;;;12.07;100.00;101360.94;5229305;28;20033;-70
2022/09/18 11:42:53;;;;;;;6.82;1.20;;;;;;;11.93;100.00;101369.16;5226946;28;20038;-69
2022/09/18 11:45:49;;;;;;;3.50;0.70;;;;;;;11.81;100.00;101364.66;5238333;28;20052;-70
2022/09/18 11:48:30;;;;;;;7.00;0.90;;;;;;;11.77;100.00;101358.69;5226548;28;20025;-69
2022/09/18 11:51:10;;;;;;;4.82;1.63;;;;;;;11.75;100.00;101377.53;5231368;28;20431;-70
2022/09/18 11:53:47;;;;;;;5.53;1.40;;;;;;;11.76;100.00;101367.69;5238906;28;20037;-70
2022/09/18 11:56:33;;;;;;;3.88;1.40;;;;;;;11.75;100.00;101366.84;5229064;28;20055;-70
2022/09/18 11:59:13;;;;;;;5.22;1.65;;;;;;;11.75;100.00;101365.97;5231053;28;20033;-70